createdAt,value
2022-11-30T00:04:46.512Z,41.80
2022-11-30T00:07:14.484Z,38.07
2022-11-30T00:09:42.213Z,43.80
2022-11-30T00:12:10.128Z,38.07
2022-11-30T00:14:37.758Z,24.20
2022-11-30T00:17:05.027Z,36.40
2022-11-30T00:19:33.287Z,22.20
2022-11-30T00:22:01.597Z,29.30
2022-11-30T00:29:32.635Z,29.77
2022-11-30T00:32:01.795Z,46.37
2022-11-30T00:34:29.606Z,58.57
2022-11-30T00:36:57.288Z,26.57
2022-11-30T00:39:24.564Z,41.73
2022-11-30T00:41:51.948Z,46.47
2022-11-30T00:44:19.981Z,26.17
2022-11-30T00:51:54.680Z,52.57
2022-11-30T00:54:22.127Z,20.93
2022-11-30T00:56:49.754Z,43.40
2022-11-30T00:59:17.157Z,22.83
2022-11-30T01:01:45.092Z,46.63
2022-11-30T01:04:12.568Z,30.40
2022-11-30T01:06:39.765Z,32.53
2022-11-30T01:09:08.684Z,31.03
2022-11-30T01:16:41.148Z,49.33
2022-11-30T01:19:13.084Z,36.73
2022-11-30T01:21:41.207Z,27.90
2022-11-30T01:24:10.044Z,38.50
2022-11-30T01:26:37.406Z,32.50
2022-11-30T01:29:04.685Z,36.23
2022-11-30T01:31:33.185Z,24.77
2022-11-30T01:37:08.985Z,52.40
2022-11-30T01:39:36.667Z,22.13
2022-11-30T01:42:04.847Z,45.63
2022-11-30T01:44:52.636Z,30.47
2022-11-30T01:47:25.556Z,42.60
2022-11-30T01:49:56.956Z,40.50
2022-11-30T01:52:29.347Z,44.90
2022-11-30T02:00:09.344Z,55.03
2022-11-30T02:02:43.663Z,60.97
2022-11-30T02:05:12.965Z,42.77
2022-11-30T02:07:41.216Z,30.37
2022-11-30T02:10:14.916Z,38.13
2022-11-30T02:13:06.285Z,44.87
2022-11-30T02:15:44.359Z,43.03
2022-11-30T02:24:03.775Z,44.63
2022-11-30T02:26:52.475Z,52.70
2022-11-30T02:29:24.976Z,34.13
2022-11-30T02:31:56.416Z,46.60
2022-11-30T02:34:28.226Z,46.20
2022-11-30T02:36:57.267Z,30.80
2022-11-30T02:39:24.997Z,50.50
2022-11-30T02:44:36.786Z,31.53
2022-11-30T02:47:19.475Z,34.00
2022-11-30T02:49:53.957Z,45.80
2022-11-30T02:52:25.354Z,58.93
2022-11-30T02:54:53.664Z,59.17
2022-11-30T02:57:21.167Z,41.10
2022-11-30T02:59:50.374Z,35.33
2022-11-30T03:09:48.264Z,63.53
2022-11-30T03:12:15.587Z,47.70
2022-11-30T03:14:43.257Z,33.43
2022-11-30T03:17:10.654Z,42.93
2022-11-30T03:19:37.992Z,49.20
2022-11-30T03:22:05.847Z,41.70
2022-11-30T03:24:33.208Z,52.67
2022-11-30T03:27:02.247Z,36.43
2022-11-30T03:34:36.686Z,35.00
2022-11-30T03:37:04.848Z,52.63
2022-11-30T03:39:32.964Z,46.10
2022-11-30T03:42:00.631Z,50.23
2022-11-30T03:44:29.648Z,48.83
2022-11-30T03:46:59.500Z,29.13
2022-11-30T03:49:26.920Z,51.67
2022-11-30T03:51:55.217Z,49.47
2022-11-30T03:59:32.469Z,46.00
2022-11-30T04:02:03.288Z,51.17
2022-11-30T04:04:30.624Z,37.27
2022-11-30T04:06:58.245Z,51.10
2022-11-30T04:09:25.957Z,54.60
2022-11-30T04:11:53.384Z,31.77
2022-11-30T04:14:21.154Z,55.83
2022-11-30T04:22:25.560Z,39.53
2022-11-30T04:24:52.964Z,28.17
2022-11-30T04:27:20.354Z,43.70
2022-11-30T04:29:48.016Z,29.30
2022-11-30T04:32:15.336Z,30.80
2022-11-30T04:34:42.714Z,33.17
2022-11-30T04:37:10.066Z,27.77
2022-11-30T04:39:38.388Z,37.27
2022-11-30T04:49:49.665Z,33.23
2022-11-30T04:52:17.045Z,44.20
2022-11-30T04:54:44.994Z,35.77
2022-11-30T04:57:12.637Z,24.53
2022-11-30T04:59:39.896Z,26.87
2022-11-30T05:02:07.672Z,32.40
2022-11-30T05:04:35.188Z,36.80
2022-11-30T05:07:04.564Z,34.80
2022-11-30T05:12:24.941Z,44.33
2022-11-30T05:14:53.926Z,33.37
2022-11-30T05:17:21.626Z,47.43
2022-11-30T05:19:48.995Z,28.77
2022-11-30T05:22:17.427Z,22.60
2022-11-30T05:24:45.046Z,36.87
2022-11-30T05:27:16.577Z,33.17
2022-11-30T05:34:51.774Z,24.80
2022-11-30T05:37:19.924Z,28.30
2022-11-30T05:39:49.438Z,26.67
2022-11-30T05:42:16.934Z,17.30
2022-11-30T05:44:44.843Z,32.27
2022-11-30T05:47:15.685Z,23.57
2022-11-30T05:49:43.496Z,32.77
2022-11-30T05:52:12.066Z,20.37
2022-11-30T06:07:40.942Z,18.27
2022-11-30T06:10:10.433Z,19.73
2022-11-30T06:12:38.955Z,35.37
2022-11-30T06:15:07.896Z,20.73
2022-11-30T06:17:37.363Z,21.57
2022-11-30T06:20:06.397Z,24.93
2022-11-30T06:22:35.466Z,18.07
2022-11-30T06:29:40.375Z,28.87
2022-11-30T06:32:08.484Z,25.27
2022-11-30T06:34:36.326Z,22.77
2022-11-30T06:37:05.337Z,13.57
2022-11-30T06:40:04.335Z,17.70
2022-11-30T06:42:20.889Z,30.27
2022-11-30T06:47:32.697Z,14.07
2022-11-30T06:49:59.924Z,28.17
2022-11-30T06:52:27.378Z,22.30
2022-11-30T06:54:57.565Z,16.53
2022-11-30T06:57:28.524Z,25.33
2022-11-30T06:59:56.434Z,18.87
2022-11-30T07:02:24.867Z,12.93
2022-11-30T07:04:53.647Z,23.80
2022-11-30T07:13:43.996Z,30.77
2022-11-30T07:16:12.141Z,27.07
2022-11-30T07:18:39.633Z,18.90
2022-11-30T07:21:07.553Z,18.90
2022-11-30T07:23:56.658Z,25.60
2022-11-30T07:26:25.050Z,23.53
2022-11-30T07:28:57.425Z,26.10
2022-11-30T07:36:31.708Z,20.10
2022-11-30T07:38:59.726Z,13.70
2022-11-30T07:41:27.257Z,32.27
2022-11-30T07:43:54.637Z,28.07
2022-11-30T07:46:22.699Z,14.03
2022-11-30T07:48:50.097Z,23.67
2022-11-30T07:51:20.137Z,27.83
2022-11-30T07:53:48.714Z,33.53
2022-11-30T08:01:23.085Z,30.13
2022-11-30T08:03:51.366Z,23.67
2022-11-30T08:06:21.157Z,27.50
2022-11-30T08:08:50.261Z,35.63
2022-11-30T08:11:19.808Z,30.17
2022-11-30T08:13:47.964Z,20.60
2022-11-30T08:16:17.892Z,16.53
2022-11-30T08:18:46.996Z,29.40
2022-11-30T08:27:21.994Z,34.10
2022-11-30T08:29:49.525Z,21.37
2022-11-30T08:32:17.068Z,26.03
2022-11-30T08:34:45.076Z,45.40
2022-11-30T08:37:13.294Z,22.07
2022-11-30T08:39:40.784Z,39.23
2022-11-30T08:42:08.787Z,35.00
2022-11-30T08:44:37.427Z,25.30
2022-11-30T08:49:44.615Z,18.70
2022-11-30T08:52:17.966Z,24.73
2022-11-30T08:54:47.767Z,26.10
2022-11-30T08:57:17.510Z,18.20
2022-11-30T08:59:45.286Z,26.30
2022-11-30T09:02:16.441Z,12.57
2022-11-30T09:04:44.786Z,24.37
2022-11-30T09:23:42.047Z,9.77
2022-11-30T09:26:11.467Z,9.10
2022-11-30T09:28:40.035Z,7.90
2022-11-30T09:31:11.126Z,20.27
2022-11-30T09:33:39.637Z,10.23
2022-11-30T09:36:09.115Z,17.37
2022-11-30T09:38:38.047Z,12.57
2022-11-30T09:43:53.645Z,21.50
2022-11-30T09:46:25.950Z,13.77
2022-11-30T09:48:59.780Z,10.83
2022-11-30T09:51:32.767Z,13.73
2022-11-30T09:54:07.622Z,12.63
2022-11-30T09:56:40.047Z,13.57
2022-11-30T09:59:18.399Z,18.00
2022-11-30T10:07:16.540Z,10.93
2022-11-30T10:10:30.765Z,22.10
2022-11-30T10:12:48.528Z,9.67
2022-11-30T10:15:27.127Z,14.67
2022-11-30T10:17:58.116Z,9.13
2022-11-30T10:20:49.228Z,8.33
2022-11-30T10:31:54.736Z,14.63
2022-11-30T10:34:24.205Z,10.83
2022-11-30T10:37:00.400Z,11.73
2022-11-30T10:39:33.136Z,14.70
2022-11-30T10:42:07.280Z,10.97
2022-11-30T10:44:39.366Z,11.97
2022-11-30T10:47:14.834Z,9.10
2022-11-30T10:49:49.105Z,11.50
2022-11-30T10:55:15.136Z,13.13
2022-11-30T10:57:44.300Z,12.73
2022-11-30T11:00:14.577Z,12.40
2022-11-30T11:02:45.166Z,13.53
2022-11-30T11:05:18.820Z,12.30
2022-11-30T11:07:50.205Z,10.43
2022-11-30T11:10:22.545Z,10.37
2022-11-30T11:18:28.425Z,10.33
2022-11-30T11:21:07.628Z,10.73
2022-11-30T11:23:39.926Z,12.20
2022-11-30T11:26:26.355Z,11.53
2022-11-30T11:29:00.234Z,11.07
2022-11-30T11:31:39.513Z,12.70
2022-11-30T11:34:33.210Z,12.13
2022-11-30T11:52:39.575Z,11.13
2022-11-30T11:55:14.555Z,11.97
2022-11-30T11:57:49.057Z,12.53
2022-11-30T12:00:19.257Z,12.07
2022-11-30T12:03:00.264Z,12.93
2022-11-30T12:05:36.611Z,11.50
2022-11-30T12:08:16.827Z,10.47
2022-11-30T12:17:34.987Z,10.83
2022-11-30T12:20:17.839Z,9.37
2022-11-30T12:23:04.597Z,11.50
2022-11-30T12:25:36.755Z,10.77
2022-11-30T12:28:17.725Z,11.27
2022-11-30T12:30:55.069Z,11.00
2022-11-30T12:33:39.434Z,12.83
2022-11-30T12:41:34.712Z,12.60
2022-11-30T12:44:28.504Z,10.77
2022-11-30T12:47:02.985Z,12.63
2022-11-30T12:49:50.172Z,11.83
2022-11-30T12:52:34.014Z,10.70
2022-11-30T12:55:14.546Z,10.60
2022-11-30T12:57:49.884Z,11.40
2022-11-30T13:05:27.037Z,10.90
2022-11-30T13:08:02.825Z,9.93
2022-11-30T13:10:37.697Z,10.97
2022-11-30T13:13:06.530Z,11.03
2022-11-30T13:15:35.660Z,10.43
2022-11-30T13:18:04.548Z,10.37
2022-11-30T13:20:41.536Z,11.83
2022-11-30T13:23:14.510Z,10.37
2022-11-30T13:30:56.271Z,10.20
2022-11-30T13:33:49.377Z,9.40
2022-11-30T13:36:37.463Z,9.73
2022-11-30T13:39:22.936Z,9.60
2022-11-30T13:41:53.145Z,10.30
2022-11-30T13:44:30.109Z,10.70
2022-11-30T13:47:02.071Z,11.90
2022-11-30T13:54:42.253Z,11.73
2022-11-30T13:57:17.925Z,11.57
2022-11-30T13:59:51.255Z,11.67
2022-11-30T14:02:59.614Z,12.80
2022-11-30T14:05:38.254Z,14.23
2022-11-30T14:08:18.444Z,12.13
2022-11-30T14:10:47.996Z,11.33
2022-11-30T14:18:50.201Z,13.23
2022-11-30T14:21:34.918Z,12.37
2022-11-30T14:24:07.754Z,12.30
2022-11-30T14:26:39.593Z,12.07
2022-11-30T14:29:17.284Z,13.57
2022-11-30T14:31:55.180Z,13.73
2022-11-30T14:34:27.382Z,12.00
2022-11-30T14:39:56.175Z,11.73
2022-11-30T14:42:25.854Z,12.70
2022-11-30T14:44:54.185Z,13.00
2022-11-30T14:47:23.844Z,11.27
2022-11-30T14:49:53.577Z,11.97
2022-11-30T14:52:39.354Z,12.20
2022-11-30T14:55:18.183Z,11.77
2022-11-30T14:57:53.728Z,15.57
2022-11-30T15:05:30.135Z,12.90
2022-11-30T15:07:58.358Z,12.57
2022-11-30T15:10:31.397Z,11.70
2022-11-30T15:13:01.213Z,13.70
2022-11-30T15:15:31.075Z,14.50
2022-11-30T15:17:59.994Z,13.00
2022-11-30T15:20:32.303Z,14.93
2022-11-30T15:25:44.346Z,11.60
2022-11-30T15:28:16.945Z,13.53
2022-11-30T15:30:48.444Z,11.37
2022-11-30T15:33:20.569Z,9.87
2022-11-30T15:38:38.786Z,12.90
2022-11-30T15:41:16.775Z,13.87
2022-11-30T15:46:46.481Z,7.17
2022-11-30T15:49:17.663Z,16.13
2022-11-30T15:51:47.254Z,8.27
2022-11-30T15:54:14.923Z,24.20
2022-11-30T15:56:56.374Z,8.37
2022-11-30T15:59:26.995Z,5.17
2022-11-30T16:02:05.643Z,9.70
2022-11-30T16:09:41.385Z,4.43
2022-11-30T16:12:24.405Z,5.13
2022-11-30T16:14:51.856Z,5.37
2022-11-30T16:17:19.564Z,5.60
2022-11-30T16:19:47.467Z,6.33
2022-11-30T16:22:16.133Z,4.47
2022-11-30T16:24:45.265Z,8.20
2022-11-30T16:27:17.045Z,3.87
2022-11-30T16:34:55.008Z,4.93
2022-11-30T16:37:22.425Z,3.57
2022-11-30T16:39:50.704Z,9.60
2022-11-30T16:42:18.741Z,8.37
2022-11-30T16:44:46.463Z,2.97
2022-11-30T16:47:14.675Z,3.50
2022-11-30T16:49:42.515Z,3.70
2022-11-30T16:57:47.873Z,3.80
2022-11-30T17:00:21.133Z,7.60
2022-11-30T17:02:56.777Z,2.47
2022-11-30T17:05:24.779Z,3.30
2022-11-30T17:07:52.453Z,6.20
2022-11-30T17:10:20.844Z,2.47
2022-11-30T17:12:50.142Z,2.10
2022-11-30T17:15:22.099Z,2.20
2022-11-30T17:22:55.109Z,4.50
2022-11-30T17:25:23.739Z,4.17
2022-11-30T17:27:51.933Z,4.40
2022-11-30T17:30:21.586Z,2.93
2022-11-30T17:32:50.051Z,4.23
2022-11-30T17:35:18.090Z,3.80
2022-11-30T17:37:45.480Z,3.63
2022-11-30T17:42:55.220Z,3.40
2022-11-30T17:45:23.022Z,3.47
2022-11-30T17:47:51.371Z,2.90
2022-11-30T17:50:18.833Z,3.10
2022-11-30T17:52:46.299Z,2.13
2022-11-30T17:55:14.419Z,3.00
2022-11-30T17:57:47.837Z,2.60
2022-11-30T18:00:27.295Z,2.50
2022-11-30T18:05:36.103Z,2.30
2022-11-30T18:08:04.303Z,2.53
2022-11-30T18:10:31.692Z,2.00
2022-11-30T18:12:59.195Z,2.10
2022-11-30T18:15:26.658Z,3.03
2022-11-30T18:17:54.910Z,2.43
2022-11-30T18:20:22.339Z,1.90
2022-11-30T18:22:50.601Z,1.40
2022-11-30T18:28:43.100Z,1.67
2022-11-30T18:31:10.409Z,1.67
2022-11-30T18:33:38.439Z,1.00
2022-11-30T18:36:07.290Z,1.07
2022-11-30T18:38:38.059Z,0.90
2022-11-30T18:41:07.069Z,0.87
2022-11-30T18:43:34.816Z,1.10
2022-11-30T18:46:07.933Z,1.53
2022-11-30T18:51:32.035Z,1.30
2022-11-30T18:54:01.203Z,1.23
2022-11-30T18:56:31.200Z,1.40
2022-11-30T18:59:00.122Z,1.10
2022-11-30T19:01:28.338Z,1.60
2022-11-30T19:03:57.673Z,1.70
2022-11-30T19:06:27.793Z,1.70
2022-11-30T19:14:01.742Z,2.63
2022-11-30T19:16:30.572Z,4.93
2022-11-30T19:19:00.633Z,8.67
2022-11-30T19:21:29.272Z,8.67
2022-11-30T19:23:58.359Z,8.07
2022-11-30T19:26:28.738Z,8.67
2022-11-30T19:28:57.458Z,9.37
2022-11-30T19:31:27.675Z,8.93
2022-11-30T19:39:08.599Z,11.57
2022-11-30T19:41:37.432Z,9.77
2022-11-30T19:44:06.739Z,10.90
2022-11-30T19:46:34.181Z,9.77
2022-11-30T19:49:02.576Z,10.10
2022-11-30T19:51:32.211Z,9.37
2022-11-30T19:54:01.922Z,11.47
2022-11-30T19:56:34.504Z,10.50
2022-11-30T20:04:06.361Z,11.47
2022-11-30T20:06:35.946Z,11.30
2022-11-30T20:09:05.011Z,10.50
2022-11-30T20:11:37.171Z,11.20
2022-11-30T20:14:08.662Z,11.40
2022-11-30T20:16:37.031Z,9.70
2022-11-30T20:19:05.371Z,9.63
2022-11-30T20:21:35.239Z,9.03
2022-11-30T20:39:34.889Z,9.50
2022-11-30T20:42:02.878Z,8.77
2022-11-30T20:44:32.980Z,7.83
2022-11-30T20:47:00.821Z,8.43
2022-11-30T20:49:34.189Z,8.67
2022-11-30T20:52:03.467Z,8.87
2022-11-30T20:54:32.147Z,8.23
2022-11-30T21:00:07.540Z,10.10
2022-11-30T21:02:38.439Z,10.30
2022-11-30T21:05:07.432Z,10.90
2022-11-30T21:07:35.601Z,8.83
2022-11-30T21:10:04.118Z,8.50
2022-11-30T21:12:32.330Z,9.30
2022-11-30T21:15:02.332Z,9.53
2022-11-30T21:22:35.739Z,9.17
2022-11-30T21:25:03.262Z,9.53
2022-11-30T21:27:30.999Z,8.93
2022-11-30T21:29:59.510Z,8.37
2022-11-30T21:32:26.929Z,9.03
2022-11-30T21:34:56.605Z,8.07
2022-11-30T21:37:24.020Z,21.57
2022-11-30T21:39:52.889Z,7.53
2022-11-30T21:47:28.072Z,9.47
2022-11-30T21:49:56.270Z,9.50
2022-11-30T21:52:25.853Z,9.47
2022-11-30T21:54:53.395Z,11.93
2022-11-30T21:57:20.940Z,9.93
2022-11-30T21:59:48.405Z,10.60
2022-11-30T22:02:16.009Z,11.10
2022-11-30T22:04:45.033Z,12.07
2022-11-30T22:09:56.327Z,7.87
2022-11-30T22:12:23.772Z,9.73
2022-11-30T22:14:51.440Z,9.40
2022-11-30T22:17:19.580Z,8.43
2022-11-30T22:19:47.131Z,10.87
2022-11-30T22:22:14.782Z,9.73
2022-11-30T22:24:42.327Z,9.63
2022-11-30T22:27:11.562Z,10.90
2022-11-30T22:37:09.958Z,10.57
2022-11-30T22:39:37.170Z,12.03
2022-11-30T22:42:04.830Z,10.10
2022-11-30T22:44:32.531Z,9.43
2022-11-30T22:47:00.211Z,9.47
2022-11-30T22:49:28.545Z,18.60
2022-11-30T22:51:56.082Z,12.23
2022-11-30T22:59:59.372Z,8.83
2022-11-30T23:02:26.851Z,13.27
2022-11-30T23:04:54.751Z,9.37
2022-11-30T23:07:26.272Z,10.80
2022-11-30T23:09:57.191Z,10.77
2022-11-30T23:12:51.218Z,11.70
2022-11-30T23:15:16.589Z,10.53
2022-11-30T23:26:13.853Z,11.20
2022-11-30T23:28:42.182Z,10.07
2022-11-30T23:31:10.925Z,11.20
2022-11-30T23:33:58.539Z,10.63
2022-11-30T23:36:25.620Z,11.47
2022-11-30T23:38:57.544Z,9.37
2022-11-30T23:41:26.593Z,10.87
2022-11-30T23:49:00.146Z,9.80
2022-11-30T23:51:28.031Z,10.70
2022-11-30T23:53:55.430Z,10.77
2022-11-30T23:56:24.282Z,10.47
2022-11-30T23:58:51.762Z,10.97
